Archival Weather

Batten Intl

Racine, Wisconsin (KRAC)

Report from: Thursday, February 22, 2024 3:53 AM CST
Current time: Tuesday, April 23, 2024 2:06 AM CDT

Current weather – Weather history – Daily summaries
Weather forecast

Temperature5.0°C (41.0°F)
Dew point0.0°C (32.0°F)
Winds Calm
Visibility10 mi. (16.1 km)
Clouds Few clouds 12,000 ft. (3,658 m)
Altimeter29.76 in.Hg (1008 mB)
Relative humidity70 %
Density altitude-940 ft. (-287 m)
Sea-level pressure100.8 kPa (1008 mB, 29.77 in.Hg)
Remarks Fully automated report
Automated weather observing station with precipitation discriminator
Flight conditions Visual Meteorological Conditions
Raw dataKRAC 220953Z AUTO 00000KT 10SM FEW120 05/00 A2976 RMK AO2 SLP081 T00500000
An error has occurred. This application may no longer respond until reloaded. Reload 🗙